sensor_id;sensor_type;location;lat;lon;timestamp;P1;durP1;ratioP1;P2;durP2;ratioP2
27580;SDS011;15013;52.298;7.978;2022-07-04T00:00:35;3.95;;;3.65;;
27580;SDS011;15013;52.298;7.978;2022-07-04T00:05:36;6.78;;;4.03;;
27580;SDS011;15013;52.298;7.978;2022-07-04T00:10:36;6.47;;;3.85;;
27580;SDS011;15013;52.298;7.978;2022-07-04T00:15:36;5.50;;;3.73;;
27580;SDS011;15013;52.298;7.978;2022-07-04T00:20:37;6.32;;;4.15;;
27580;SDS011;15013;52.298;7.978;2022-07-04T00:25:37;3.83;;;3.53;;
27580;SDS011;15013;52.298;7.978;2022-07-04T00:30:38;8.90;;;3.33;;
27580;SDS011;15013;52.298;7.978;2022-07-04T00:35:38;7.55;;;3.92;;
27580;SDS011;15013;52.298;7.978;2022-07-04T00:40:38;5.78;;;3.90;;
27580;SDS011;15013;52.298;7.978;2022-07-04T00:45:39;4.63;;;3.50;;
27580;SDS011;15013;52.298;7.978;2022-07-04T00:50:39;3.92;;;3.15;;
27580;SDS011;15013;52.298;7.978;2022-07-04T00:55:40;4.50;;;3.67;;
27580;SDS011;15013;52.298;7.978;2022-07-04T01:00:40;6.03;;;3.60;;
27580;SDS011;15013;52.298;7.978;2022-07-04T01:05:40;6.93;;;4.00;;
27580;SDS011;15013;52.298;7.978;2022-07-04T01:10:42;5.45;;;4.05;;
27580;SDS011;15013;52.298;7.978;2022-07-04T01:15:42;5.47;;;4.68;;
27580;SDS011;15013;52.298;7.978;2022-07-04T01:20:43;7.63;;;4.80;;
27580;SDS011;15013;52.298;7.978;2022-07-04T01:25:43;5.53;;;4.43;;
27580;SDS011;15013;52.298;7.978;2022-07-04T01:30:44;8.23;;;4.30;;
27580;SDS011;15013;52.298;7.978;2022-07-04T01:35:46;7.20;;;5.15;;
27580;SDS011;15013;52.298;7.978;2022-07-04T01:40:46;8.93;;;4.97;;
27580;SDS011;15013;52.298;7.978;2022-07-04T01:45:47;6.82;;;5.00;;
27580;SDS011;15013;52.298;7.978;2022-07-04T01:50:47;8.35;;;5.45;;
27580;SDS011;15013;52.298;7.978;2022-07-04T01:55:48;6.70;;;5.33;;
27580;SDS011;15013;52.298;7.978;2022-07-04T02:00:48;7.07;;;6.23;;
27580;SDS011;15013;52.298;7.978;2022-07-04T02:06:07;6.32;;;5.72;;
27580;SDS011;15013;52.298;7.978;2022-07-04T02:11:07;5.70;;;5.17;;
27580;SDS011;15013;52.298;7.978;2022-07-04T02:16:08;10.23;;;5.23;;
27580;SDS011;15013;52.298;7.978;2022-07-04T02:21:08;7.23;;;6.50;;
27580;SDS011;15013;52.298;7.978;2022-07-04T02:26:08;6.23;;;5.53;;
27580;SDS011;15013;52.298;7.978;2022-07-04T02:31:09;10.30;;;7.33;;
27580;SDS011;15013;52.298;7.978;2022-07-04T02:36:09;13.90;;;7.93;;
27580;SDS011;15013;52.298;7.978;2022-07-04T02:41:09;11.53;;;8.83;;
27580;SDS011;15013;52.298;7.978;2022-07-04T02:46:10;9.57;;;8.57;;
27580;SDS011;15013;52.298;7.978;2022-07-04T02:51:10;8.93;;;8.03;;
27580;SDS011;15013;52.298;7.978;2022-07-04T02:56:10;12.63;;;9.57;;
27580;SDS011;15013;52.298;7.978;2022-07-04T03:01:11;10.77;;;8.77;;
27580;SDS011;15013;52.298;7.978;2022-07-04T03:06:14;11.95;;;10.32;;
27580;SDS011;15013;52.298;7.978;2022-07-04T03:11:15;13.05;;;9.70;;
27580;SDS011;15013;52.298;7.978;2022-07-04T03:16:15;15.82;;;9.82;;
27580;SDS011;15013;52.298;7.978;2022-07-04T03:21:16;12.93;;;9.77;;
27580;SDS011;15013;52.298;7.978;2022-07-04T03:26:16;13.20;;;9.53;;
27580;SDS011;15013;52.298;7.978;2022-07-04T03:31:16;11.50;;;9.90;;
27580;SDS011;15013;52.298;7.978;2022-07-04T03:36:17;11.73;;;10.53;;
27580;SDS011;15013;52.298;7.978;2022-07-04T03:41:17;10.63;;;9.48;;
27580;SDS011;15013;52.298;7.978;2022-07-04T03:46:18;13.47;;;10.80;;
27580;SDS011;15013;52.298;7.978;2022-07-04T03:51:18;14.60;;;10.98;;
27580;SDS011;15013;52.298;7.978;2022-07-04T03:56:19;15.80;;;11.23;;
27580;SDS011;15013;52.298;7.978;2022-07-04T04:01:19;13.07;;;10.10;;
27580;SDS011;15013;52.298;7.978;2022-07-04T04:06:19;16.27;;;12.20;;
27580;SDS011;15013;52.298;7.978;2022-07-04T04:11:20;15.95;;;12.13;;
27580;SDS011;15013;52.298;7.978;2022-07-04T04:16:21;12.90;;;11.40;;
27580;SDS011;15013;52.298;7.978;2022-07-04T04:21:21;17.63;;;13.25;;
27580;SDS011;15013;52.298;7.978;2022-07-04T04:26:21;15.67;;;14.03;;
27580;SDS011;15013;52.298;7.978;2022-07-04T04:31:22;19.33;;;16.03;;
27580;SDS011;15013;52.298;7.978;2022-07-04T04:36:22;17.40;;;14.27;;
27580;SDS011;15013;52.298;7.978;2022-07-04T04:41:23;17.42;;;13.98;;
27580;SDS011;15013;52.298;7.978;2022-07-04T04:46:23;17.35;;;15.05;;
27580;SDS011;15013;52.298;7.978;2022-07-04T04:51:23;20.73;;;16.60;;
27580;SDS011;15013;52.298;7.978;2022-07-04T04:56:24;24.13;;;16.10;;
27580;SDS011;15013;52.298;7.978;2022-07-04T05:01:24;21.42;;;17.15;;
27580;SDS011;15013;52.298;7.978;2022-07-04T05:06:25;23.20;;;18.50;;
27580;SDS011;15013;52.298;7.978;2022-07-04T05:11:25;23.00;;;19.07;;
27580;SDS011;15013;52.298;7.978;2022-07-04T05:16:25;24.37;;;19.27;;
27580;SDS011;15013;52.298;7.978;2022-07-04T05:21:26;25.97;;;18.07;;
27580;SDS011;15013;52.298;7.978;2022-07-04T05:26:28;22.35;;;17.65;;
27580;SDS011;15013;52.298;7.978;2022-07-04T05:31:28;19.23;;;15.63;;
27580;SDS011;15013;52.298;7.978;2022-07-04T05:36:29;23.20;;;15.02;;
27580;SDS011;15013;52.298;7.978;2022-07-04T05:41:29;19.35;;;15.57;;
27580;SDS011;15013;52.298;7.978;2022-07-04T05:46:29;19.02;;;13.52;;
27580;SDS011;15013;52.298;7.978;2022-07-04T05:51:30;17.17;;;12.65;;
27580;SDS011;15013;52.298;7.978;2022-07-04T05:56:30;15.75;;;9.88;;
27580;SDS011;15013;52.298;7.978;2022-07-04T06:01:31;14.20;;;10.27;;
27580;SDS011;15013;52.298;7.978;2022-07-04T06:06:31;13.10;;;8.73;;
27580;SDS011;15013;52.298;7.978;2022-07-04T06:11:32;13.32;;;8.60;;
27580;SDS011;15013;52.298;7.978;2022-07-04T06:16:32;14.07;;;6.97;;
27580;SDS011;15013;52.298;7.978;2022-07-04T06:21:33;11.93;;;6.57;;
27580;SDS011;15013;52.298;7.978;2022-07-04T06:26:33;10.20;;;6.20;;
27580;SDS011;15013;52.298;7.978;2022-07-04T06:31:33;7.97;;;4.90;;
27580;SDS011;15013;52.298;7.978;2022-07-04T06:36:34;8.23;;;3.97;;
27580;SDS011;15013;52.298;7.978;2022-07-04T06:41:34;6.97;;;3.70;;
27580;SDS011;15013;52.298;7.978;2022-07-04T06:46:35;9.15;;;2.85;;
27580;SDS011;15013;52.298;7.978;2022-07-04T06:51:35;5.43;;;2.67;;
27580;SDS011;15013;52.298;7.978;2022-07-04T06:56:35;6.73;;;2.73;;
27580;SDS011;15013;52.298;7.978;2022-07-04T07:01:36;8.03;;;2.00;;
27580;SDS011;15013;52.298;7.978;2022-07-04T07:06:36;3.37;;;2.13;;
27580;SDS011;15013;52.298;7.978;2022-07-04T07:11:36;2.23;;;1.43;;
27580;SDS011;15013;52.298;7.978;2022-07-04T07:16:37;4.97;;;2.13;;
27580;SDS011;15013;52.298;7.978;2022-07-04T07:21:37;5.60;;;1.60;;
27580;SDS011;15013;52.298;7.978;2022-07-04T07:26:37;2.97;;;1.77;;
27580;SDS011;15013;52.298;7.978;2022-07-04T07:31:38;4.33;;;1.70;;
27580;SDS011;15013;52.298;7.978;2022-07-04T07:36:38;5.65;;;1.60;;
27580;SDS011;15013;52.298;7.978;2022-07-04T07:41:38;6.87;;;1.50;;
27580;SDS011;15013;52.298;7.978;2022-07-04T07:46:39;2.10;;;1.80;;
27580;SDS011;15013;52.298;7.978;2022-07-04T07:51:40;5.55;;;2.00;;
27580;SDS011;15013;52.298;7.978;2022-07-04T07:56:40;2.73;;;1.93;;
27580;SDS011;15013;52.298;7.978;2022-07-04T08:01:40;4.20;;;2.00;;
27580;SDS011;15013;52.298;7.978;2022-07-04T08:06:41;5.00;;;2.03;;
27580;SDS011;15013;52.298;7.978;2022-07-04T08:11:41;5.32;;;2.50;;
27580;SDS011;15013;52.298;7.978;2022-07-04T08:16:42;3.13;;;1.50;;
27580;SDS011;15013;52.298;7.978;2022-07-04T08:21:42;4.00;;;1.37;;
27580;SDS011;15013;52.298;7.978;2022-07-04T08:26:43;1.63;;;1.48;;
27580;SDS011;15013;52.298;7.978;2022-07-04T08:31:43;3.38;;;1.73;;
27580;SDS011;15013;52.298;7.978;2022-07-04T08:36:44;7.43;;;1.85;;
27580;SDS011;15013;52.298;7.978;2022-07-04T08:41:44;3.37;;;2.00;;
27580;SDS011;15013;52.298;7.978;2022-07-04T08:46:44;2.97;;;1.37;;
27580;SDS011;15013;52.298;7.978;2022-07-04T08:57:23;3.33;;;1.58;;
27580;SDS011;15013;52.298;7.978;2022-07-04T09:02:41;2.95;;;1.67;;
27580;SDS011;15013;52.298;7.978;2022-07-04T09:07:42;3.83;;;1.70;;
27580;SDS011;15013;52.298;7.978;2022-07-04T09:12:42;3.93;;;1.80;;
27580;SDS011;15013;52.298;7.978;2022-07-04T09:17:43;6.43;;;1.50;;
27580;SDS011;15013;52.298;7.978;2022-07-04T09:22:43;6.30;;;1.23;;
27580;SDS011;15013;52.298;7.978;2022-07-04T09:27:45;2.15;;;1.17;;
27580;SDS011;15013;52.298;7.978;2022-07-04T09:32:48;3.05;;;1.25;;
27580;SDS011;15013;52.298;7.978;2022-07-04T09:37:52;3.75;;;1.35;;
27580;SDS011;15013;52.298;7.978;2022-07-04T09:42:53;3.50;;;1.65;;
27580;SDS011;15013;52.298;7.978;2022-07-04T09:47:54;4.72;;;1.85;;
27580;SDS011;15013;52.298;7.978;2022-07-04T09:52:56;4.32;;;1.80;;
27580;SDS011;15013;52.298;7.978;2022-07-04T09:58:03;3.47;;;1.48;;
27580;SDS011;15013;52.298;7.978;2022-07-04T10:08:17;2.20;;;1.23;;
27580;SDS011;15013;52.298;7.978;2022-07-04T10:13:19;2.67;;;1.27;;
27580;SDS011;15013;52.298;7.978;2022-07-04T10:18:20;1.60;;;0.93;;
27580;SDS011;15013;52.298;7.978;2022-07-04T10:23:21;3.13;;;1.48;;
27580;SDS011;15013;52.298;7.978;2022-07-04T10:28:22;4.18;;;1.70;;
27580;SDS011;15013;52.298;7.978;2022-07-04T10:33:23;1.97;;;1.20;;
27580;SDS011;15013;52.298;7.978;2022-07-04T10:38:25;5.00;;;2.90;;
27580;SDS011;15013;52.298;7.978;2022-07-04T10:53:57;4.10;;;1.35;;
27580;SDS011;15013;52.298;7.978;2022-07-04T10:58:58;4.97;;;1.30;;
27580;SDS011;15013;52.298;7.978;2022-07-04T11:04:02;2.60;;;1.27;;
27580;SDS011;15013;52.298;7.978;2022-07-04T11:19:32;5.20;;;1.63;;
27580;SDS011;15013;52.298;7.978;2022-07-04T11:24:32;3.75;;;1.20;;
27580;SDS011;15013;52.298;7.978;2022-07-04T11:29:33;3.17;;;1.40;;
27580;SDS011;15013;52.298;7.978;2022-07-04T11:34:34;3.00;;;1.17;;
27580;SDS011;15013;52.298;7.978;2022-07-04T11:39:35;3.03;;;1.40;;
27580;SDS011;15013;52.298;7.978;2022-07-04T11:44:36;2.57;;;1.40;;
27580;SDS011;15013;52.298;7.978;2022-07-04T11:49:57;7.07;;;1.70;;
27580;SDS011;15013;52.298;7.978;2022-07-04T11:54:57;2.95;;;1.40;;
27580;SDS011;15013;52.298;7.978;2022-07-04T11:59:59;1.40;;;1.27;;
27580;SDS011;15013;52.298;7.978;2022-07-04T12:05:01;5.68;;;1.70;;
27580;SDS011;15013;52.298;7.978;2022-07-04T12:15:13;4.25;;;1.30;;
27580;SDS011;15013;52.298;7.978;2022-07-04T12:20:14;6.17;;;1.57;;
27580;SDS011;15013;52.298;7.978;2022-07-04T12:30:25;6.25;;;2.08;;
27580;SDS011;15013;52.298;7.978;2022-07-04T12:40:36;5.32;;;1.83;;
27580;SDS011;15013;52.298;7.978;2022-07-04T12:45:43;3.97;;;1.58;;
27580;SDS011;15013;52.298;7.978;2022-07-04T12:50:44;3.85;;;1.58;;
27580;SDS011;15013;52.298;7.978;2022-07-04T12:55:45;1.42;;;1.33;;
27580;SDS011;15013;52.298;7.978;2022-07-04T13:00:46;4.60;;;2.25;;
27580;SDS011;15013;52.298;7.978;2022-07-04T13:05:46;3.47;;;1.40;;
27580;SDS011;15013;52.298;7.978;2022-07-04T13:10:46;5.23;;;1.80;;
27580;SDS011;15013;52.298;7.978;2022-07-04T13:15:47;4.07;;;1.80;;
27580;SDS011;15013;52.298;7.978;2022-07-04T13:20:47;4.27;;;1.70;;
27580;SDS011;15013;52.298;7.978;2022-07-04T13:25:48;2.78;;;1.67;;
27580;SDS011;15013;52.298;7.978;2022-07-04T13:30:48;4.80;;;1.97;;
27580;SDS011;15013;52.298;7.978;2022-07-04T13:35:48;3.50;;;1.80;;
27580;SDS011;15013;52.298;7.978;2022-07-04T13:40:49;3.93;;;2.30;;
27580;SDS011;15013;52.298;7.978;2022-07-04T13:45:50;3.30;;;1.80;;
27580;SDS011;15013;52.298;7.978;2022-07-04T13:50:50;3.20;;;2.08;;
27580;SDS011;15013;52.298;7.978;2022-07-04T13:55:51;5.63;;;2.60;;
27580;SDS011;15013;52.298;7.978;2022-07-04T14:00:51;3.87;;;2.27;;
27580;SDS011;15013;52.298;7.978;2022-07-04T14:05:51;4.23;;;2.13;;
27580;SDS011;15013;52.298;7.978;2022-07-04T14:10:52;5.18;;;2.00;;
27580;SDS011;15013;52.298;7.978;2022-07-04T14:15:52;5.03;;;2.13;;
27580;SDS011;15013;52.298;7.978;2022-07-04T14:20:53;3.53;;;1.80;;
27580;SDS011;15013;52.298;7.978;2022-07-04T14:25:53;4.63;;;1.80;;
27580;SDS011;15013;52.298;7.978;2022-07-04T14:30:54;3.17;;;1.87;;
27580;SDS011;15013;52.298;7.978;2022-07-04T14:35:54;4.87;;;2.20;;
27580;SDS011;15013;52.298;7.978;2022-07-04T14:40:55;5.78;;;2.10;;
27580;SDS011;15013;52.298;7.978;2022-07-04T14:45:55;4.53;;;2.70;;
27580;SDS011;15013;52.298;7.978;2022-07-04T14:50:55;7.10;;;2.00;;
27580;SDS011;15013;52.298;7.978;2022-07-04T14:55:56;7.43;;;2.40;;
27580;SDS011;15013;52.298;7.978;2022-07-04T15:00:56;4.87;;;2.10;;
27580;SDS011;15013;52.298;7.978;2022-07-04T15:05:57;5.40;;;2.20;;
27580;SDS011;15013;52.298;7.978;2022-07-04T15:10:57;3.60;;;2.00;;
27580;SDS011;15013;52.298;7.978;2022-07-04T15:15:57;3.27;;;2.00;;
27580;SDS011;15013;52.298;7.978;2022-07-04T15:20:58;4.68;;;2.08;;
27580;SDS011;15013;52.298;7.978;2022-07-04T15:26:17;3.55;;;1.83;;
27580;SDS011;15013;52.298;7.978;2022-07-04T15:31:17;4.13;;;1.97;;
27580;SDS011;15013;52.298;7.978;2022-07-04T15:36:18;5.03;;;2.10;;
27580;SDS011;15013;52.298;7.978;2022-07-04T15:41:18;4.87;;;2.00;;
27580;SDS011;15013;52.298;7.978;2022-07-04T15:46:18;3.77;;;2.37;;
27580;SDS011;15013;52.298;7.978;2022-07-04T15:51:19;1.93;;;1.73;;
27580;SDS011;15013;52.298;7.978;2022-07-04T15:56:20;2.30;;;2.00;;
27580;SDS011;15013;52.298;7.978;2022-07-04T16:01:20;3.15;;;1.98;;
27580;SDS011;15013;52.298;7.978;2022-07-04T16:06:20;5.03;;;1.77;;
27580;SDS011;15013;52.298;7.978;2022-07-04T16:11:21;4.30;;;2.30;;
27580;SDS011;15013;52.298;7.978;2022-07-04T16:16:22;4.95;;;1.95;;
27580;SDS011;15013;52.298;7.978;2022-07-04T16:21:23;2.92;;;2.03;;
27580;SDS011;15013;52.298;7.978;2022-07-04T16:26:23;4.40;;;1.93;;
27580;SDS011;15013;52.298;7.978;2022-07-04T16:31:23;4.22;;;2.10;;
27580;SDS011;15013;52.298;7.978;2022-07-04T16:36:24;1.93;;;1.83;;
27580;SDS011;15013;52.298;7.978;2022-07-04T16:41:24;3.77;;;1.83;;
27580;SDS011;15013;52.298;7.978;2022-07-04T16:46:25;4.47;;;2.20;;
27580;SDS011;15013;52.298;7.978;2022-07-04T16:51:25;8.03;;;2.27;;
27580;SDS011;15013;52.298;7.978;2022-07-04T16:56:26;5.63;;;2.20;;
27580;SDS011;15013;52.298;7.978;2022-07-04T17:01:26;6.37;;;2.30;;
27580;SDS011;15013;52.298;7.978;2022-07-04T17:06:26;3.00;;;2.00;;
27580;SDS011;15013;52.298;7.978;2022-07-04T17:11:27;3.93;;;2.20;;
27580;SDS011;15013;52.298;7.978;2022-07-04T17:16:27;4.93;;;2.40;;
27580;SDS011;15013;52.298;7.978;2022-07-04T17:21:28;6.22;;;2.10;;
27580;SDS011;15013;52.298;7.978;2022-07-04T17:26:28;4.63;;;2.00;;
27580;SDS011;15013;52.298;7.978;2022-07-04T17:31:29;3.67;;;2.20;;
27580;SDS011;15013;52.298;7.978;2022-07-04T17:36:30;4.43;;;2.42;;
27580;SDS011;15013;52.298;7.978;2022-07-04T17:41:30;6.10;;;2.20;;
27580;SDS011;15013;52.298;7.978;2022-07-04T17:46:46;3.42;;;1.92;;
27580;SDS011;15013;52.298;7.978;2022-07-04T17:51:46;3.97;;;2.25;;
27580;SDS011;15013;52.298;7.978;2022-07-04T17:56:47;5.57;;;2.60;;
27580;SDS011;15013;52.298;7.978;2022-07-04T18:01:47;3.83;;;2.10;;
27580;SDS011;15013;52.298;7.978;2022-07-04T18:06:48;3.50;;;2.03;;
27580;SDS011;15013;52.298;7.978;2022-07-04T18:11:49;6.67;;;1.93;;
27580;SDS011;15013;52.298;7.978;2022-07-04T18:16:49;4.93;;;1.70;;
27580;SDS011;15013;52.298;7.978;2022-07-04T18:21:50;5.35;;;1.88;;
27580;SDS011;15013;52.298;7.978;2022-07-04T18:26:50;3.53;;;1.70;;
27580;SDS011;15013;52.298;7.978;2022-07-04T18:31:51;4.47;;;1.80;;
27580;SDS011;15013;52.298;7.978;2022-07-04T18:36:52;5.35;;;1.98;;
27580;SDS011;15013;52.298;7.978;2022-07-04T18:41:53;5.22;;;1.73;;
27580;SDS011;15013;52.298;7.978;2022-07-04T18:47:12;3.10;;;1.90;;
27580;SDS011;15013;52.298;7.978;2022-07-04T18:52:12;1.60;;;1.50;;
27580;SDS011;15013;52.298;7.978;2022-07-04T18:57:13;4.93;;;1.77;;
27580;SDS011;15013;52.298;7.978;2022-07-04T19:02:14;3.47;;;1.67;;
27580;SDS011;15013;52.298;7.978;2022-07-04T19:07:15;2.83;;;1.40;;
27580;SDS011;15013;52.298;7.978;2022-07-04T19:12:15;2.38;;;1.85;;
27580;SDS011;15013;52.298;7.978;2022-07-04T19:17:15;5.53;;;1.80;;
27580;SDS011;15013;52.298;7.978;2022-07-04T19:22:17;4.28;;;1.55;;
27580;SDS011;15013;52.298;7.978;2022-07-04T19:27:18;2.77;;;1.57;;
27580;SDS011;15013;52.298;7.978;2022-07-04T19:32:18;9.07;;;1.70;;
27580;SDS011;15013;52.298;7.978;2022-07-04T19:37:20;4.20;;;2.13;;
27580;SDS011;15013;52.298;7.978;2022-07-04T19:42:21;7.07;;;1.70;;
27580;SDS011;15013;52.298;7.978;2022-07-04T19:47:23;9.80;;;1.70;;
27580;SDS011;15013;52.298;7.978;2022-07-04T19:52:25;5.38;;;2.17;;
27580;SDS011;15013;52.298;7.978;2022-07-04T19:57:29;2.75;;;1.67;;
27580;SDS011;15013;52.298;7.978;2022-07-04T20:02:30;3.13;;;1.65;;
27580;SDS011;15013;52.298;7.978;2022-07-04T20:07:30;2.67;;;1.90;;
27580;SDS011;15013;52.298;7.978;2022-07-04T20:12:31;2.47;;;1.52;;
27580;SDS011;15013;52.298;7.978;2022-07-04T20:17:32;5.07;;;1.55;;
27580;SDS011;15013;52.298;7.978;2022-07-04T20:22:32;3.17;;;1.52;;
27580;SDS011;15013;52.298;7.978;2022-07-04T20:27:33;3.83;;;1.77;;
27580;SDS011;15013;52.298;7.978;2022-07-04T20:32:33;5.05;;;1.90;;
27580;SDS011;15013;52.298;7.978;2022-07-04T20:37:34;2.65;;;1.50;;
27580;SDS011;15013;52.298;7.978;2022-07-04T20:42:35;7.63;;;1.90;;
27580;SDS011;15013;52.298;7.978;2022-07-04T20:47:37;4.32;;;2.38;;
27580;SDS011;15013;52.298;7.978;2022-07-04T20:52:37;2.50;;;1.60;;
27580;SDS011;15013;52.298;7.978;2022-07-04T20:57:37;2.50;;;1.43;;
27580;SDS011;15013;52.298;7.978;2022-07-04T21:02:38;6.03;;;1.57;;
27580;SDS011;15013;52.298;7.978;2022-07-04T21:07:38;3.20;;;1.67;;
27580;SDS011;15013;52.298;7.978;2022-07-04T21:12:39;1.48;;;1.33;;
27580;SDS011;15013;52.298;7.978;2022-07-04T21:17:39;2.45;;;1.90;;
27580;SDS011;15013;52.298;7.978;2022-07-04T21:22:41;4.18;;;1.98;;
27580;SDS011;15013;52.298;7.978;2022-07-04T21:27:42;3.45;;;1.75;;
27580;SDS011;15013;52.298;7.978;2022-07-04T21:32:42;4.28;;;1.95;;
27580;SDS011;15013;52.298;7.978;2022-07-04T21:37:43;2.65;;;1.70;;
27580;SDS011;15013;52.298;7.978;2022-07-04T21:42:44;3.22;;;1.90;;
27580;SDS011;15013;52.298;7.978;2022-07-04T21:47:45;2.75;;;1.60;;
27580;SDS011;15013;52.298;7.978;2022-07-04T21:52:45;3.83;;;1.77;;
27580;SDS011;15013;52.298;7.978;2022-07-04T21:57:46;3.27;;;2.13;;
27580;SDS011;15013;52.298;7.978;2022-07-04T22:02:46;3.70;;;1.70;;
27580;SDS011;15013;52.298;7.978;2022-07-04T22:07:46;7.20;;;2.00;;
27580;SDS011;15013;52.298;7.978;2022-07-04T22:12:47;2.08;;;1.75;;
27580;SDS011;15013;52.298;7.978;2022-07-04T22:17:47;3.53;;;2.30;;
27580;SDS011;15013;52.298;7.978;2022-07-04T22:22:47;4.87;;;2.10;;
27580;SDS011;15013;52.298;7.978;2022-07-04T22:27:48;6.85;;;2.40;;
27580;SDS011;15013;52.298;7.978;2022-07-04T22:32:48;7.20;;;2.15;;
27580;SDS011;15013;52.298;7.978;2022-07-04T22:37:49;2.75;;;1.90;;
27580;SDS011;15013;52.298;7.978;2022-07-04T22:42:49;4.13;;;1.75;;
27580;SDS011;15013;52.298;7.978;2022-07-04T22:47:50;3.28;;;1.95;;
27580;SDS011;15013;52.298;7.978;2022-07-04T22:52:50;3.80;;;2.23;;
27580;SDS011;15013;52.298;7.978;2022-07-04T22:57:50;4.07;;;2.67;;
27580;SDS011;15013;52.298;7.978;2022-07-04T23:02:51;6.22;;;2.40;;
27580;SDS011;15013;52.298;7.978;2022-07-04T23:07:51;2.17;;;1.97;;
27580;SDS011;15013;52.298;7.978;2022-07-04T23:12:52;2.63;;;2.43;;
27580;SDS011;15013;52.298;7.978;2022-07-04T23:17:52;6.30;;;2.67;;
27580;SDS011;15013;52.298;7.978;2022-07-04T23:22:52;2.73;;;2.17;;
27580;SDS011;15013;52.298;7.978;2022-07-04T23:27:53;5.70;;;2.70;;
27580;SDS011;15013;52.298;7.978;2022-07-04T23:32:53;2.72;;;2.20;;
27580;SDS011;15013;52.298;7.978;2022-07-04T23:37:53;3.53;;;2.30;;
27580;SDS011;15013;52.298;7.978;2022-07-04T23:42:54;2.73;;;2.23;;
27580;SDS011;15013;52.298;7.978;2022-07-04T23:47:54;3.07;;;2.30;;
27580;SDS011;15013;52.298;7.978;2022-07-04T23:52:54;6.23;;;3.07;;
27580;SDS011;15013;52.298;7.978;2022-07-04T23:57:55;4.30;;;2.73;;
